地図

経路データ

SID SEASON NUMBER BASIN SUBBASIN NAME ISO_TIME NATURE LAT LON WMO_WIND WMO_PRES WMO_AGENCY TRACK_TYPE DIST2LAND LANDFALL IFLAG USA_AGENCY USA_ATCF_ID USA_LAT USA_LON USA_RECORD USA_STATUS USA_WIND USA_PRES USA_SSHS USA_R34_NE USA_R34_SE USA_R34_SW USA_R34_NW USA_R50_NE USA_R50_SE USA_R50_SW USA_R50_NW USA_R64_NE USA_R64_SE USA_R64_SW USA_R64_NW USA_POCI USA_ROCI USA_RMW USA_EYE TOKYO_LAT TOKYO_LON TOKYO_GRADE TOKYO_WIND TOKYO_PRES TOKYO_R50_DIR TOKYO_R50_LONG TOKYO_R50_SHORT TOKYO_R30_DIR TOKYO_R30_LONG TOKYO_R30_SHORT TOKYO_LAND CMA_LAT CMA_LON CMA_CAT CMA_WIND CMA_PRES HKO_LAT HKO_LON HKO_CAT HKO_WIND HKO_PRES NEWDELHI_LAT NEWDELHI_LON NEWDELHI_GRADE NEWDELHI_WIND NEWDELHI_PRES NEWDELHI_CI NEWDELHI_DP NEWDELHI_POCI REUNION_LAT REUNION_LON REUNION_TYPE REUNION_WIND REUNION_PRES REUNION_TNUM REUNION_CI REUNION_RMW REUNION_R34_NE REUNION_R34_SE REUNION_R34_SW REUNION_R34_NW REUNION_R50_NE REUNION_R50_SE REUNION_R50_SW REUNION_R50_NW REUNION_R64_NE REUNION_R64_SE REUNION_R64_SW REUNION_R64_NW BOM_LAT BOM_LON BOM_TYPE BOM_WIND BOM_PRES BOM_TNUM BOM_CI BOM_RMW BOM_R34_NE BOM_R34_SE BOM_R34_SW BOM_R34_NW BOM_R50_NE BOM_R50_SE BOM_R50_SW BOM_R50_NW BOM_R64_NE BOM_R64_SE BOM_R64_SW BOM_R64_NW BOM_ROCI BOM_POCI BOM_EYE BOM_POS_METHOD BOM_PRES_METHOD NADI_LAT NADI_LON NADI_CAT NADI_WIND NADI_PRES WELLINGTON_LAT WELLINGTON_LON WELLINGTON_WIND WELLINGTON_PRES DS824_LAT DS824_LON DS824_STAGE DS824_WIND DS824_PRES TD9636_LAT TD9636_LON TD9636_STAGE TD9636_WIND TD9636_PRES TD9635_LAT TD9635_LON TD9635_WIND TD9635_PRES TD9635_ROCI NEUMANN_LAT NEUMANN_LON NEUMANN_CLASS NEUMANN_WIND NEUMANN_PRES MLC_LAT MLC_LON MLC_CLASS MLC_WIND MLC_PRES USA_GUST BOM_GUST BOM_GUST_PER REUNION_GUST REUNION_GUST_PER USA_SEAHGT USA_SEARAD_NE USA_SEARAD_SE USA_SEARAD_SW USA_SEARAD_NW STORM_SPEED STORM_DIR
1916193N26289 1916 33 NA NA NOT_NAMED 1916-07-11 06:00:00 TS 25.9000 -71.2000 40 hurdat_atl main 556 556 O_____________ hurdat_atl AL041916 25.9000 -71.2000 TS 40 0 9 310
1916193N26289 1916 33 NA NA NOT_NAMED 1916-07-11 09:00:00 TS 26.2002 -71.5996 main 576 576 P_____________ AL041916 26.2002 -71.5996 TS 40 0 9 310
1916193N26289 1916 33 NA NA NOT_NAMED 1916-07-11 12:00:00 TS 26.5000 -72.0000 40 hurdat_atl main 600 589 O_____________ hurdat_atl AL041916 26.5000 -72.0000 TS 40 0 9 310
1916193N26289 1916 33 NA NA NOT_NAMED 1916-07-11 15:00:00 TS 26.7999 -72.4002 main 589 564 P_____________ AL041916 26.7999 -72.4002 TS 42 0 9 310
1916193N26289 1916 33 NA NA NOT_NAMED 1916-07-11 18:00:00 TS 27.1000 -72.8000 45 hurdat_atl main 564 542 O_____________ hurdat_atl AL041916 27.1000 -72.8000 TS 45 0 9 310
1916193N26289 1916 33 NA NA NOT_NAMED 1916-07-11 21:00:00 TS 27.4074 -73.2001 main 542 525 P_____________ AL041916 27.4074 -73.2001 TS 47 0 9 310
1916193N26289 1916 33 NA NA NOT_NAMED 1916-07-12 00:00:00 TS 27.7000 -73.6000 50 hurdat_atl main 525 505 O_____________ hurdat_atl AL041916 27.7000 -73.6000 TS 50 0 9 308
1916193N26289 1916 33 NA NA NOT_NAMED 1916-07-12 03:00:00 TS 27.9574 -74.0003 main 512 497 P_____________ AL041916 27.9574 -74.0003 TS 55 0 9 305
1916193N26289 1916 33 NA NA NOT_NAMED 1916-07-12 06:00:00 TS 28.2000 -74.4000 60 hurdat_atl main 497 486 O_____________ hurdat_atl AL041916 28.2000 -74.4000 TS 60 0 9 305
1916193N26289 1916 33 NA NA NOT_NAMED 1916-07-12 09:00:00 TS 28.4499 -74.8002 main 486 482 P_____________ AL041916 28.4499 -74.8002 TS 60 0 9 305
1916193N26289 1916 33 NA NA NOT_NAMED 1916-07-12 12:00:00 TS 28.7000 -75.2000 60 hurdat_atl main 488 479 O_____________ hurdat_atl AL041916 28.7000 -75.2000 TS 60 0 9 306
1916193N26289 1916 33 NA NA NOT_NAMED 1916-07-12 15:00:00 TS 28.9498 -75.5927 main 479 444 P_____________ AL041916 28.9498 -75.5927 TS 65 1 9 306
1916193N26289 1916 33 NA NA NOT_NAMED 1916-07-12 18:00:00 TS 29.2000 -76.0000 70 hurdat_atl main 444 410 O_____________ hurdat_atl AL041916 29.2000 -76.0000 HU 70 1 9 304
1916193N26289 1916 33 NA NA NOT_NAMED 1916-07-12 21:00:00 TS 29.4500 -76.4501 main 404 374 P_____________ AL041916 29.4500 -76.4501 HU 72 1 9 303
1916193N26289 1916 33 NA NA NOT_NAMED 1916-07-13 00:00:00 TS 29.7000 -76.9000 75 hurdat_atl main 374 347 O_____________ hurdat_atl AL041916 29.7000 -76.9000 HU 75 1 9 304
1916193N26289 1916 33 NA NA NOT_NAMED 1916-07-13 03:00:00 TS 29.9499 -77.3152 main 347 330 P_____________ AL041916 29.9499 -77.3152 HU 77 1 9 306
1916193N26289 1916 33 NA NA NOT_NAMED 1916-07-13 06:00:00 TS 30.2000 -77.7000 80 hurdat_atl main 330 304 O_____________ hurdat_atl AL041916 30.2000 -77.7000 HU 80 1 8 307
1916193N26289 1916 33 NA NA NOT_NAMED 1916-07-13 09:00:00 TS 30.4424 -78.0727 main 304 260 P_____________ AL041916 30.4424 -78.0727 HU 85 2 8 310
1916193N26289 1916 33 NA NA NOT_NAMED 1916-07-13 12:00:00 TS 30.7000 -78.4000 90 hurdat_atl main 260 216 O_____________ hurdat_atl AL041916 30.7000 -78.4000 HU 90 2 8 316
1916193N26289 1916 33 NA NA NOT_NAMED 1916-07-13 15:00:00 TS 30.9849 -78.6801 main 216 178 P_____________ AL041916 30.9849 -78.6801 HU 95 2 7 324
1916193N26289 1916 33 NA NA NOT_NAMED 1916-07-13 18:00:00 TS 31.3000 -78.9000 100 hurdat_atl main 178 140 O_____________ hurdat_atl AL041916 31.3000 -78.9000 HU 100 3 7 333
1916193N26289 1916 33 NA NA NOT_NAMED 1916-07-13 21:00:00 TS 31.6499 -79.0726 main 140 100 P_____________ AL041916 31.6499 -79.0726 HU 100 3 7 340
1916193N26289 1916 33 NA NA NOT_NAMED 1916-07-14 00:00:00 TS 32.0000 -79.2000 100 hurdat_atl main 100 71 O_____________ hurdat_atl AL041916 32.0000 -79.2000 HU 100 3 7 343
1916193N26289 1916 33 NA NA NOT_NAMED 1916-07-14 03:00:00 TS 32.2715 -79.2951 main 71 43 P_____________ AL041916 32.2715 -79.2951 HU 97 3 6 344
1916193N26289 1916 33 NA NA NOT_NAMED 1916-07-14 06:00:00 TS 32.6000 -79.4000 95 960 hurdat_atl main 43 11 O_____________ hurdat_atl AL041916 32.6000 -79.4000 HU 95 960 2 8 345
1916193N26289 1916 33 NA NA NOT_NAMED 1916-07-14 08:00:00 TS 32.9000 -79.5000 95 960 hurdat_atl main 11 0 O_____________ hurdat_atl AL041916 32.9000 -79.5000 L HU 95 960 2 8 343
1916193N26289 1916 33 NA NA NOT_NAMED 1916-07-14 09:00:00 TS 33.0042 -79.5465 main 0 0 P_____________ AL041916 33.0042 -79.5465 HU 88 2 5 331
1916193N26289 1916 33 NA NA NOT_NAMED 1916-07-14 12:00:00 TS 33.2000 -79.7000 70 hurdat_atl main 0 0 O_____________ hurdat_atl AL041916 33.2000 -79.7000 HU 70 1 5 325
1916193N26289 1916 33 NA NA NOT_NAMED 1916-07-14 15:00:00 TS 33.4454 -79.9177 main 0 0 P_____________ AL041916 33.4454 -79.9177 HU 62 0 7 320
1916193N26289 1916 33 NA NA NOT_NAMED 1916-07-14 18:00:00 TS 33.7000 -80.2000 55 hurdat_atl main 0 0 O_____________ hurdat_atl AL041916 33.7000 -80.2000 TS 55 0 7 316
1916193N26289 1916 33 NA NA NOT_NAMED 1916-07-14 21:00:00 TS 33.9574 -80.5201 main 0 0 P_____________ AL041916 33.9574 -80.5201 TS 52 0 8 311
1916193N26289 1916 33 NA NA NOT_NAMED 1916-07-15 00:00:00 TS 34.2000 -80.9000 50 hurdat_atl main 0 0 O_____________ hurdat_atl AL041916 34.2000 -80.9000 TS 50 0 8 304
1916193N26289 1916 33 NA NA NOT_NAMED 1916-07-15 03:00:00 TS 34.4075 -81.3352 main 0 0 P_____________ AL041916 34.4075 -81.3352 TS 47 0 8 298
1916193N26289 1916 33 NA NA NOT_NAMED 1916-07-15 06:00:00 TS 34.6000 -81.8000 45 hurdat_atl main 0 0 O_____________ hurdat_atl AL041916 34.6000 -81.8000 TS 45 0 8 298
1916193N26289 1916 33 NA NA NOT_NAMED 1916-07-15 09:00:00 TS 34.7998 -82.2502 main 0 0 P_____________ AL041916 34.7998 -82.2502 TS 40 0 8 298
1916193N26289 1916 33 NA NA NOT_NAMED 1916-07-15 12:00:00 TS 35.0000 -82.7000 35 hurdat_atl main 0 0 O_____________ hurdat_atl AL041916 35.0000 -82.7000 TS 35 0 8 299
1916193N26289 1916 33 NA NA NOT_NAMED 1916-07-15 15:00:00 TS 35.2003 -83.1496 main 0 0 P_____________ AL041916 35.2003 -83.1496 TS 32 -1 8 299
1916193N26289 1916 33 NA NA NOT_NAMED 1916-07-15 18:00:00 TS 35.4000 -83.6000 30 hurdat_atl main 0 O_____________ hurdat_atl AL041916 35.4000 -83.6000 TD 30 -1 8 299

IBTrACS Databaseについて

本データベースは、米国NOAAが公開する1842年以降の世界の熱帯低気圧のベストトラックデータアーカイブInternational Best Track Archive for Climate Stewardship (IBTrACS)を、ウェブで閲覧しやすい形式に変換したものです。

最終更新日:2021-12-03